Private Wetterstation Wechselburg
Wetterdaten: Woche 16.12.13 - 22.12.13 (KW51)
Datum Zeit Temp. +2m Bodentemp. Temp.+5cm Temp. Wind Windchill X Diff Temp. Feuchte +2m Feuchte +5cm Sonnenschein Luftdruck Regen Wind Richtung Sonnenschein UV Taupunkt Windchill Windben
16.12.2013 00:00 3,0 C 13,3 C 1,7 C 2,6 C 1,9 C 0,0 C 81 % 87 % 0 % 1031,7 hPa 0,0 l/m 1,2 km/h (1 Bft) S-SO 0,00 h 0,0 UV-I 0,1 C 1,9 C 1,7 km/h (1 Bft)
16.12.2013 01:00 2,8 C 13,2 C 1,1 C 2,4 C 1,5 C 0,0 C 79 % 87 % 0 % 1031,5 hPa 0,0 l/m 0,4 km/h (0 Bft) N 0,00 h 0,0 UV-I -0,5 C 1,5 C 1,5 km/h (1 Bft)
16.12.2013 02:00 3,3 C 13,1 C 1,4 C 3,0 C 2,2 C 0,0 C 76 % 87 % 0 % 1031,1 hPa 0,0 l/m 0,8 km/h (0 Bft) SO 0,00 h 0,0 UV-I -0,5 C 2,2 C 1,2 km/h (1 Bft)
16.12.2013 03:00 3,4 C 13,0 C 1,2 C 3,0 C 2,2 C 0,0 C 73 % 86 % 0 % 1031,0 hPa 0,0 l/m 0,3 km/h (0 Bft) N 0,00 h 0,0 UV-I -1,0 C 2,2 C 0,4 km/h (0 Bft)
16.12.2013 04:00 3,2 C 12,9 C 0,8 C 2,9 C 2,3 C 0,0 C 73 % 86 % 0 % 1030,6 hPa 0,0 l/m 0,1 km/h (0 Bft) N 0,00 h 0,0 UV-I -1,3 C 2,3 C 0,1 km/h (0 Bft)
16.12.2013 05:00 2,3 C 12,9 C 0,1 C 1,9 C 1,2 C 0,0 C 74 % 86 % 0 % 1030,6 hPa 0,0 l/m 0,0 km/h (0 Bft) N 0,00 h 0,0 UV-I -2,0 C 1,2 C 0,0 km/h (0 Bft)
16.12.2013 06:00 0,6 C 13,0 C -0,8 C 0,3 C -0,5 C 0,0 C 78 % 87 % 0 % 1029,9 hPa 0,0 l/m 0,0 km/h (0 Bft) N 0,00 h 0,0 UV-I -2,7 C -0,5 C 0,0 km/h (0 Bft)
16.12.2013 07:00 -0,2 C 13,0 C -1,0 C -0,5 C -1,1 C 0,0 C 83 % 88 % 0 % 1029,8 hPa 0,0 l/m 0,1 km/h (0 Bft) S-SO 0,00 h 0,0 UV-I -2,8 C -1,1 C 0,7 km/h (0 Bft)
16.12.2013 08:00 2,1 C 12,8 C 0,3 C 2,1 C 1,9 C 0,1 C 80 % 87 % 3 % 1029,4 hPa 0,0 l/m 0,4 km/h (0 Bft) N 0,00 h 0,0 UV-I -1,0 C 1,9 C 0,5 km/h (0 Bft)
16.12.2013 09:00 6,4 C 12,7 C 4,2 C 6,7 C 6,6 C 0,3 C 64 % 81 % 8 % 1029,4 hPa 0,0 l/m 3,2 km/h (1 Bft) O-SO 0,00 h 0,0 UV-I 0,0 C 6,4 C 5,4 km/h (1 Bft)
16.12.2013 10:00 9,0 C 12,6 C 6,6 C 9,7 C 9,7 C 0,8 C 54 % 71 % 20 % 1029,8 hPa 0,0 l/m 2,8 km/h (1 Bft) SO 0,00 h 0,0 UV-I 0,1 C 9,7 C 4,2 km/h (1 Bft)
16.12.2013 11:00 10,0 C 12,7 C 8,0 C 11,8 C 11,8 C 1,9 C 50 % 65 % 49 % 1029,4 hPa 0,0 l/m 4,0 km/h (1 Bft) S 0,00 h 0,0 UV-I 0,2 C 11,8 C 7,2 km/h (2 Bft)
16.12.2013 12:00 10,8 C 12,8 C 9,0 C 12,1 C 12,1 C 1,2 C 48 % 60 % 32 % 1029,2 hPa 0,0 l/m 4,4 km/h (1 Bft) S-SO 0,00 h 0,0 UV-I 0,3 C 12,1 C 6,8 km/h (2 Bft)
16.12.2013 13:00 11,6 C 13,0 C 9,7 C 12,6 C 12,6 C 1,0 C 45 % 58 % 26 % 1028,6 hPa 0,0 l/m 5,5 km/h (1 Bft) S 0,00 h 0,0 UV-I 0,2 C 12,6 C 7,8 km/h (2 Bft)
16.12.2013 14:00 11,9 C 13,2 C 10,2 C 13,1 C 13,1 C 1,1 C 45 % 55 % 30 % 1028,8 hPa 0,0 l/m 4,7 km/h (1 Bft) SO 0,00 h 0,0 UV-I 0,2 C 13,1 C 6,9 km/h (2 Bft)
16.12.2013 15:00 11,3 C 13,4 C 9,6 C 11,3 C 11,0 C 0,1 C 45 % 56 % 2 % 1028,7 hPa 0,0 l/m 4,2 km/h (1 Bft) SO 0,00 h 0,0 UV-I -0,0 C 10,9 C 5,4 km/h (1 Bft)
16.12.2013 16:00 9,4 C 13,6 C 6,6 C 9,1 C 8,3 C 0,0 C 50 % 64 % 0 % 1028,8 hPa 0,0 l/m 2,0 km/h (1 Bft) S 0,00 h 0,0 UV-I -0,4 C 8,3 C 2,3 km/h (1 Bft)
16.12.2013 17:00 6,2 C 13,7 C 3,3 C 5,7 C 4,7 C 0,0 C 59 % 73 % 0 % 1028,8 hPa 0,0 l/m 0,1 km/h (0 Bft) N 0,00 h 0,0 UV-I -1,3 C 4,7 C 0,0 km/h (0 Bft)
16.12.2013 18:00 3,4 C 13,7 C 1,6 C 2,9 C 1,9 C 0,0 C 68 % 79 % 0 % 1028,8 hPa 0,0 l/m 0,1 km/h (0 Bft) N 0,00 h 0,0 UV-I -1,9 C 1,9 C 0,0 km/h (0 Bft)
16.12.2013 19:00 1,7 C 13,7 C 0,5 C 1,2 C 0,3 C 0,0 C 75 % 82 % 0 % 1028,5 hPa 0,0 l/m 0,0 km/h (0 Bft) N 0,00 h 0,0 UV-I -2,3 C 0,3 C 0,0 km/h (0 Bft)
16.12.2013 20:00 0,6 C 13,7 C -0,3 C 0,5 C 0,0 C 0,1 C 79 % 84 % 0 % 1028,5 hPa 0,0 l/m 0,0 km/h (0 Bft) N 0,00 h 0,0 UV-I -2,6 C 0,0 C 0,0 km/h (0 Bft)
16.12.2013 21:00 0,5 C 13,5 C -0,5 C 0,2 C -0,4 C 0,0 C 80 % 85 % 0 % 1028,5 hPa 0,0 l/m 0,0 km/h (0 Bft) N 0,00 h 0,0 UV-I -2,5 C -0,4 C 0,3 km/h (0 Bft)
16.12.2013 22:00 -0,0 C 13,5 C -0,7 C -0,2 C -0,7 C 0,0 C 82 % 85 % 0 % 1028,3 hPa 0,0 l/m 0,0 km/h (0 Bft) N 0,00 h 0,0 UV-I -2,7 C -0,7 C 0,0 km/h (0 Bft)
16.12.2013 23:00 0,5 C 13,3 C -0,1 C 0,6 C 0,5 C 0,1 C 83 % 85 % 0 % 1028,6 hPa 0,0 l/m 0,6 km/h (0 Bft) N-NO 0,00 h 0,0 UV-I -2,0 C 0,5 C 0,9 km/h (0 Bft)
17.12.2013 00:00 0,4 C 13,3 C -0,3 C 0,2 C -0,1 C 0,0 C 82 % 85 % 0 % 1028,7 hPa 0,0 l/m 0,2 km/h (0 Bft) N 0,00 h 0,0 UV-I -2,3 C -0,1 C 0,2 km/h (0 Bft)
17.12.2013 01:00 0,0 C 13,2 C -0,9 C -0,1 C -0,3 C 0,0 C 83 % 86 % 0 % 1028,2 hPa 0,0 l/m 0,0 km/h (0 Bft) N 0,00 h 0,0 UV-I -2,5 C -0,3 C 0,0 km/h (0 Bft)
17.12.2013 02:00 0,6 C 13,1 C -0,9 C 0,5 C 0,3 C 0,1 C 82 % 86 % 0 % 1028,2 hPa 0,0 l/m 0,6 km/h (0 Bft) NO 0,00 h 0,0 UV-I -2,1 C 0,3 C 0,9 km/h (0 Bft)
17.12.2013 03:00 -0,6 C 13,2 C -1,5 C -1,1 C -2,0 C 0,0 C 83 % 86 % 0 % 1028,0 hPa 0,0 l/m 0,2 km/h (0 Bft) N 0,00 h 0,0 UV-I -3,1 C -2,0 C 0,4 km/h (0 Bft)
17.12.2013 04:00 -1,1 C 13,1 C -1,7 C -1,4 C -2,0 C 0,0 C 85 % 87 % 0 % 1027,4 hPa 0,0 l/m 0,6 km/h (0 Bft) N-NO 0,00 h 0,0 UV-I -3,3 C -2,0 C 0,7 km/h (0 Bft)
17.12.2013 05:00 -1,7 C 13,1 C -2,0 C -2,0 C -2,4 C 0,0 C 86 % 87 % 0 % 1027,7 hPa 0,0 l/m 0,6 km/h (0 Bft) W-SW 0,00 h 0,0 UV-I -3,8 C -2,4 C 0,7 km/h (0 Bft)
17.12.2013 06:00 -2,0 C 13,0 C -2,0 C -2,1 C -2,4 C 0,0 C 86 % 87 % 0 % 1027,9 hPa 0,0 l/m 0,2 km/h (0 Bft) N 0,00 h 0,0 UV-I -4,0 C -2,4 C 0,2 km/h (0 Bft)
17.12.2013 07:00 -2,6 C 13,0 C -2,3 C -2,8 C -3,3 C 0,0 C 86 % 87 % 0 % 1027,7 hPa 0,0 l/m 0,0 km/h (0 Bft) N 0,00 h 0,0 UV-I -4,5 C -3,3 C 0,0 km/h (0 Bft)
17.12.2013 08:00 -2,8 C 12,8 C -2,2 C -2,8 C -2,9 C 0,1 C 87 % 87 % 2 % 1027,9 hPa 0,0 l/m 0,4 km/h (0 Bft) W 0,00 h 0,0 UV-I -4,6 C -2,9 C 0,7 km/h (0 Bft)
17.12.2013 09:00 -2,0 C 12,6 C -0,9 C -0,7 C -0,7 C 1,3 C 88 % 87 % 35 % 1027,7 hPa 0,0 l/m 0,2 km/h (0 Bft) N 0,00 h 0,0 UV-I -3,7 C -0,7 C 0,6 km/h (0 Bft)
17.12.2013 10:00 0,7 C 12,4 C 1,5 C 4,9 C 4,9 C 4,2 C 87 % 86 % 82 % 1027,6 hPa 0,0 l/m 0,3 km/h (0 Bft) N 0,58 h 0,0 UV-I -1,3 C 4,9 C 0,9 km/h (0 Bft)
17.12.2013 11:00 8,1 C 12,3 C 6,0 C 11,6 C 11,6 C 3,5 C 67 % 80 % 88 % 1027,3 hPa 0,0 l/m 1,8 km/h (1 Bft) O-SO 0,67 h 0,0 UV-I 2,3 C 11,6 C 3,1 km/h (1 Bft)
17.12.2013 12:00 12,0 C 12,3 C 9,2 C 14,3 C 14,3 C 2,3 C 50 % 68 % 60 % 1026,5 hPa 0,0 l/m 2,3 km/h (1 Bft) SO 0,00 h 0,0 UV-I 1,8 C 14,3 C 3,7 km/h (1 Bft)
17.12.2013 13:00 12,7 C 12,5 C 10,5 C 13,7 C 13,7 C 1,0 C 45 % 59 % 26 % 1026,3 hPa 0,0 l/m 3,1 km/h (1 Bft) S 0,00 h 0,0 UV-I 1,0 C 13,7 C 7,2 km/h (2 Bft)
17.12.2013 14:00 11,6 C 12,7 C 9,6 C 11,7 C 11,7 C 0,1 C 47 % 59 % 4 % 1026,6 hPa 0,0 l/m 2,9 km/h (1 Bft) SO 0,00 h 0,0 UV-I 0,6 C 11,7 C 3,6 km/h (1 Bft)
17.12.2013 15:00 10,4 C 12,9 C 8,3 C 10,3 C 10,1 C 0,0 C 51 % 62 % 0 % 1026,6 hPa 0,0 l/m 1,2 km/h (1 Bft) N-NO 0,00 h 0,0 UV-I 0,7 C 10,1 C 1,2 km/h (1 Bft)
17.12.2013 16:00 7,5 C 13,1 C 4,8 C 7,2 C 6,5 C 0,0 C 59 % 72 % 0 % 1026,8 hPa 0,0 l/m 0,1 km/h (0 Bft) N 0,00 h 0,0 UV-I -0,0 C 6,5 C 0,0 km/h (0 Bft)
17.12.2013 17:00 4,6 C 13,2 C 2,3 C 4,2 C 3,3 C 0,0 C 68 % 78 % 0 % 1027,2 hPa 0,0 l/m 0,0 km/h (0 Bft) N 0,00 h 0,0 UV-I -0,9 C 3,3 C 0,0 km/h (0 Bft)
17.12.2013 18:00 3,1 C 13,2 C 1,3 C 2,9 C 2,4 C 0,0 C 72 % 81 % 0 % 1027,2 hPa 0,0 l/m 0,1 km/h (0 Bft) N 0,00 h 0,0 UV-I -1,4 C 2,4 C 0,0 km/h (0 Bft)
17.12.2013 19:00 1,7 C 13,3 C 0,5 C 1,4 C 0,7 C 0,0 C 76 % 83 % 0 % 1027,3 hPa 0,0 l/m 0,3 km/h (0 Bft) SW 0,00 h 0,0 UV-I -2,0 C 0,7 C 0,7 km/h (0 Bft)
17.12.2013 20:00 0,7 C 13,4 C -0,3 C 0,2 C -0,6 C 0,0 C 80 % 84 % 0 % 1027,5 hPa 0,0 l/m 0,0 km/h (0 Bft) N 0,00 h 0,0 UV-I -2,4 C -0,6 C 0,0 km/h (0 Bft)
17.12.2013 21:00 -0,3 C 13,3 C -1,0 C -0,7 C -1,6 C 0,0 C 83 % 85 % 0 % 1027,5 hPa 0,0 l/m 0,0 km/h (0 Bft) N 0,00 h 0,0 UV-I -2,9 C -1,6 C 0,0 km/h (0 Bft)
17.12.2013 22:00 -1,1 C 13,3 C -1,6 C -1,6 C -2,4 C 0,0 C 84 % 86 % 0 % 1027,4 hPa 0,0 l/m 0,0 km/h (0 Bft) N 0,00 h 0,0 UV-I -3,4 C -2,4 C 0,0 km/h (0 Bft)
17.12.2013 23:00 -1,9 C 13,4 C -1,8 C -2,2 C -2,8 C 0,0 C 85 % 86 % 0 % 1027,5 hPa 0,0 l/m 0,0 km/h (0 Bft) N 0,00 h 0,0 UV-I -4,0 C -2,8 C 0,0 km/h (0 Bft)
18.12.2013 00:00 -2,3 C 13,3 C -1,9 C -2,5 C -2,9 C 0,0 C 86 % 87 % 0 % 1027,3 hPa 0,0 l/m 0,0 km/h (0 Bft) N 0,00 h 0,0 UV-I -4,3 C -2,9 C 0,0 km/h (0 Bft)
18.12.2013 01:00 -2,6 C 13,2 C -2,1 C -2,8 C -3,1 C 0,0 C 87 % 87 % 0 % 1027,0 hPa 0,0 l/m 0,0 km/h (0 Bft) N 0,00 h 0,0 UV-I -4,5 C -3,1 C 0,0 km/h (0 Bft)
18.12.2013 02:00 -3,1 C 13,1 C -2,4 C -3,2 C -3,3 C 0,0 C 87 % 87 % 0 % 1026,2 hPa 0,0 l/m 0,0 km/h (0 Bft) N 0,00 h 0,0 UV-I -4,9 C -3,3 C 0,0 km/h (0 Bft)
18.12.2013 03:00 -3,1 C 13,0 C -2,5 C -3,1 C -3,1 C 0,1 C 88 % 87 % 0 % 1025,9 hPa 0,0 l/m 0,0 km/h (0 Bft) N 0,00 h 0,0 UV-I -4,8 C -3,1 C 0,1 km/h (0 Bft)
18.12.2013 04:00 -3,2 C 12,9 C -2,4 C -3,2 C -3,3 C 0,0 C 88 % 87 % 0 % 1024,9 hPa 0,0 l/m 0,1 km/h (0 Bft) N 0,00 h 0,0 UV-I -4,9 C -3,3 C 0,0 km/h (0 Bft)
18.12.2013 05:00 -3,3 C 12,7 C -2,2 C -2,8 C -2,8 C 0,5 C 88 % 87 % 0 % 1024,7 hPa 0,0 l/m 0,0 km/h (0 Bft) N 0,00 h 0,0 UV-I -5,0 C -2,8 C 0,0 km/h (0 Bft)
18.12.2013 06:00 -3,3 C 12,6 C -2,0 C -2,8 C -2,8 C 0,5 C 88 % 87 % 0 % 1024,2 hPa 0,0 l/m 0,0 km/h (0 Bft) N 0,00 h 0,0 UV-I -5,0 C -2,8 C 0,0 km/h (0 Bft)
18.12.2013 07:00 -3,2 C 12,6 C -1,9 C -2,7 C -2,7 C 0,5 C 89 % 87 % 0 % 1024,6 hPa 0,0 l/m 0,0 km/h (0 Bft) N 0,00 h 0,0 UV-I -4,8 C -2,7 C 0,0 km/h (0 Bft)
18.12.2013 08:00 -3,1 C 12,6 C -1,9 C -2,7 C -2,7 C 0,4 C 89 % 87 % 8 % 1024,8 hPa 0,0 l/m 0,0 km/h (0 Bft) N 0,33 h 0,0 UV-I -4,7 C -2,7 C 0,0 km/h (0 Bft)
18.12.2013 09:00 -2,8 C 12,5 C -1,4 C -2,0 C -2,0 C 0,7 C 89 % 87 % 19 % 1024,7 hPa 0,0 l/m 0,0 km/h (0 Bft) N 0,00 h 0,0 UV-I -4,3 C -2,0 C 0,0 km/h (0 Bft)
18.12.2013 10:00 -2,1 C 12,4 C -0,8 C -0,2 C -0,2 C 1,9 C 90 % 87 % 49 % 1024,5 hPa 0,0 l/m 0,0 km/h (0 Bft) N 0,00 h 0,0 UV-I -3,6 C -0,2 C 0,0 km/h (0 Bft)
18.12.2013 11:00 2,5 C 12,0 C 2,8 C 5,1 C 5,1 C 2,6 C 87 % 86 % 69 % 1024,3 hPa 0,0 l/m 0,4 km/h (0 Bft) SW 0,08 h 0,0 UV-I 0,6 C 5,1 C 1,0 km/h (0 Bft)
18.12.2013 12:00 5,6 C 12,0 C 4,2 C 7,2 C 7,2 C 1,5 C 77 % 83 % 40 % 1023,8 hPa 0,0 l/m 0,8 km/h (0 Bft) S 0,00 h 0,0 UV-I 1,9 C 7,2 C 1,5 km/h (1 Bft)
18.12.2013 13:00 7,3 C 12,0 C 5,9 C 8,2 C 8,2 C 0,8 C 65 % 78 % 22 % 1023,3 hPa 0,0 l/m 3,5 km/h (1 Bft) S 0,00 h 0,0 UV-I 1,2 C 8,1 C 3,7 km/h (1 Bft)
18.12.2013 14:00 7,4 C 12,2 C 5,7 C 7,8 C 7,8 C 0,4 C 64 % 75 % 10 % 1022,8 hPa 0,0 l/m 0,6 km/h (0 Bft) N-NO 0,00 h 0,0 UV-I 1,1 C 7,8 C 1,1 km/h (1 Bft)
18.12.2013 15:00 6,5 C 12,3 C 4,5 C 6,4 C 6,3 C 0,0 C 67 % 78 % 0 % 1022,6 hPa 0,0 l/m 0,2 km/h (0 Bft) N 0,00 h 0,0 UV-I 0,8 C 6,3 C 0,4 km/h (0 Bft)
18.12.2013 16:00 5,1 C 12,5 C 3,4 C 5,0 C 4,7 C 0,0 C 72 % 81 % 0 % 1023,0 hPa 0,0 l/m 1,3 km/h (1 Bft) NO 0,00 h 0,0 UV-I 0,5 C 4,7 C 1,7 km/h (1 Bft)
18.12.2013 17:00 5,0 C 12,5 C 3,2 C 5,0 C 4,8 C 0,0 C 72 % 81 % 0 % 1022,4 hPa 0,0 l/m 0,2 km/h (0 Bft) N 0,00 h 0,0 UV-I 0,4 C 4,8 C 0,0 km/h (0 Bft)
18.12.2013 18:00 4,9 C 12,5 C 3,4 C 5,0 C 5,0 C 0,1 C 74 % 82 % 0 % 1022,4 hPa 0,0 l/m 0,2 km/h (0 Bft) N 0,00 h 0,0 UV-I 0,6 C 5,0 C 0,8 km/h (0 Bft)
18.12.2013 19:00 5,1 C 12,6 C 3,8 C 5,7 C 5,7 C 0,6 C 74 % 82 % 0 % 1021,7 hPa 0,0 l/m 0,2 km/h (0 Bft) N 0,00 h 0,0 UV-I 1,0 C 5,7 C 0,2 km/h (0 Bft)
18.12.2013 20:00 5,0 C 12,6 C 3,5 C 5,3 C 5,3 C 0,3 C 76 % 83 % 0 % 1021,2 hPa 0,0 l/m 0,1 km/h (0 Bft) N 0,00 h 0,0 UV-I 1,2 C 5,3 C 0,0 km/h (0 Bft)
18.12.2013 21:00 4,2 C 12,7 C 2,8 C 4,1 C 3,9 C 0,0 C 78 % 84 % 0 % 1020,2 hPa 0,0 l/m 0,2 km/h (0 Bft) N 0,00 h 0,0 UV-I 0,8 C 3,9 C 0,1 km/h (0 Bft)
18.12.2013 22:00 3,3 C 12,8 C 1,9 C 3,2 C 2,8 C 0,0 C 81 % 85 % 0 % 1019,4 hPa 0,0 l/m 0,1 km/h (0 Bft) N 0,00 h 0,0 UV-I 0,4 C 2,8 C 0,1 km/h (0 Bft)
18.12.2013 23:00 2,5 C 12,9 C 1,5 C 2,4 C 2,3 C 0,0 C 84 % 86 % 0 % 1018,7 hPa 0,0 l/m 0,0 km/h (0 Bft) N 0,00 h 0,0 UV-I 0,1 C 2,3 C 0,1 km/h (0 Bft)
19.12.2013 00:00 2,1 C 12,9 C 1,5 C 2,1 C 1,9 C 0,0 C 84 % 86 % 0 % 1018,6 hPa 0,0 l/m 0,0 km/h (0 Bft) N 0,00 h 0,0 UV-I -0,3 C 1,9 C 0,0 km/h (0 Bft)
19.12.2013 01:00 2,1 C 12,7 C 1,6 C 2,6 C 2,6 C 0,5 C 84 % 86 % 0 % 1017,5 hPa 0,0 l/m 0,1 km/h (0 Bft) N 0,00 h 0,0 UV-I -0,3 C 2,6 C 0,6 km/h (0 Bft)
19.12.2013 02:00 2,8 C 12,6 C 1,6 C 2,5 C 1,9 C 0,0 C 78 % 84 % 0 % 1016,9 hPa 0,0 l/m 0,7 km/h (0 Bft) NO 0,00 h 0,0 UV-I -0,7 C 1,9 C 1,2 km/h (1 Bft)
19.12.2013 03:00 1,7 C 12,6 C 0,6 C 1,2 C 0,2 C 0,0 C 77 % 83 % 0 % 1015,9 hPa 0,0 l/m 0,0 km/h (0 Bft) N 0,00 h 0,0 UV-I -1,9 C 0,2 C 0,0 km/h (0 Bft)
19.12.2013 04:00 0,9 C 12,7 C 0,4 C 0,8 C 0,6 C 0,0 C 81 % 85 % 0 % 1015,1 hPa 0,0 l/m 0,1 km/h (0 Bft) N 0,00 h 0,0 UV-I -2,1 C 0,6 C 0,2 km/h (0 Bft)
19.12.2013 05:00 0,9 C 12,6 C 0,7 C 1,0 C 1,0 C 0,1 C 83 % 85 % 0 % 1014,2 hPa 0,0 l/m 0,2 km/h (0 Bft) N 0,00 h 0,0 UV-I -1,7 C 1,0 C 0,4 km/h (0 Bft)
19.12.2013 06:00 2,1 C 12,5 C 1,4 C 2,2 C 2,2 C 0,1 C 80 % 84 % 0 % 1013,9 hPa 0,0 l/m 0,2 km/h (0 Bft) N 0,00 h 0,0 UV-I -1,0 C 2,2 C 0,5 km/h (0 Bft)
19.12.2013 07:00 2,8 C 12,4 C 2,0 C 2,7 C 2,4 C 0,0 C 74 % 81 % 0 % 1013,0 hPa 0,0 l/m 1,1 km/h (1 Bft) O-NO 0,00 h 0,0 UV-I -1,3 C 2,4 C 2,3 km/h (1 Bft)
19.12.2013 08:00 2,9 C 12,4 C 2,2 C 2,8 C 2,6 C 0,0 C 72 % 80 % 0 % 1012,8 hPa 0,0 l/m 1,0 km/h (0 Bft) SO 0,00 h 0,0 UV-I -1,6 C 2,6 C 2,3 km/h (1 Bft)
19.12.2013 09:00 3,5 C 12,4 C 2,9 C 3,8 C 3,8 C 0,2 C 72 % 79 % 7 % 1012,7 hPa 0,0 l/m 0,5 km/h (0 Bft) N 0,00 h 0,0 UV-I -1,1 C 3,8 C 1,3 km/h (1 Bft)
19.12.2013 10:00 4,5 C 12,4 C 4,0 C 5,2 C 5,2 C 0,7 C 69 % 77 % 19 % 1012,7 hPa 0,0 l/m 0,6 km/h (0 Bft) N-NO 0,00 h 0,0 UV-I -0,7 C 5,2 C 0,5 km/h (0 Bft)
19.12.2013 11:00 5,3 C 12,5 C 4,8 C 6,0 C 6,0 C 0,7 C 68 % 75 % 19 % 1012,5 hPa 0,0 l/m 0,8 km/h (0 Bft) N-NO 0,00 h 0,0 UV-I -0,2 C 6,0 C 0,9 km/h (0 Bft)
19.12.2013 12:00 6,3 C 12,5 C 5,8 C 7,1 C 7,1 C 0,8 C 66 % 73 % 21 % 1012,2 hPa 0,0 l/m 2,3 km/h (1 Bft) SO 0,00 h 0,0 UV-I 0,4 C 7,1 C 4,4 km/h (1 Bft)
19.12.2013 13:00 8,0 C 12,6 C 7,3 C 8,1 C 7,8 C 0,2 C 60 % 67 % 5 % 1012,6 hPa 0,0 l/m 6,1 km/h (2 Bft) SO 0,00 h 0,0 UV-I 0,6 C 6,9 C 9,5 km/h (2 Bft)
19.12.2013 14:00 8,0 C 12,7 C 7,3 C 7,7 C 7,3 C 0,0 C 65 % 72 % 0 % 1012,1 hPa 0,0 l/m 6,7 km/h (2 Bft) SO 0,00 h 0,0 UV-I 1,8 C 6,1 C 10,0 km/h (2 Bft)
19.12.2013 15:00 8,0 C 12,8 C 7,3 C 7,8 C 7,2 C 0,0 C 72 % 77 % 0 % 1012,4 hPa 0,0 l/m 7,0 km/h (2 Bft) SO 0,00 h 0,0 UV-I 3,3 C 5,9 C 8,8 km/h (2 Bft)
19.12.2013 16:00 8,0 C 12,9 C 7,2 C 7,8 C 7,4 C 0,0 C 74 % 79 % 0 % 1012,8 hPa 0,0 l/m 5,4 km/h (1 Bft) O-SO 0,00 h 0,0 UV-I 3,6 C 6,7 C 6,7 km/h (2 Bft)
19.12.2013 17:00 7,9 C 13,1 C 7,1 C 7,8 C 7,7 C 0,0 C 75 % 80 % 0 % 1013,2 hPa 0,0 l/m 3,6 km/h (1 Bft) S-SO 0,00 h 0,0 UV-I 3,8 C 7,6 C 5,0 km/h (1 Bft)
19.12.2013 18:00 8,0 C 13,2 C 7,3 C 8,0 C 7,9 C 0,1 C 76 % 80 % 0 % 1013,9 hPa 0,0 l/m 4,0 km/h (1 Bft) SO 0,00 h 0,0 UV-I 4,1 C 7,8 C 5,0 km/h (1 Bft)
19.12.2013 19:00 7,9 C 13,3 C 7,2 C 7,8 C 7,4 C 0,0 C 77 % 81 % 0 % 1014,3 hPa 0,0 l/m 4,4 km/h (1 Bft) W-SW 0,00 h 0,0 UV-I 4,2 C 7,2 C 6,2 km/h (2 Bft)
19.12.2013 20:00 7,9 C 13,4 C 7,2 C 7,8 C 7,6 C 0,0 C 77 % 81 % 0 % 1014,7 hPa 0,0 l/m 4,6 km/h (1 Bft) O-NO 0,00 h 0,0 UV-I 4,2 C 7,3 C 5,6 km/h (1 Bft)
19.12.2013 21:00 7,6 C 13,4 C 6,9 C 7,5 C 7,5 C 0,0 C 78 % 82 % 0 % 1015,4 hPa 0,0 l/m 3,1 km/h (1 Bft) S-SO 0,00 h 0,0 UV-I 4,0 C 7,5 C 4,4 km/h (1 Bft)
19.12.2013 22:00 7,0 C 13,6 C 6,3 C 6,9 C 6,7 C 0,0 C 79 % 83 % 0 % 1016,0 hPa 0,0 l/m 0,9 km/h (0 Bft) S-SO 0,00 h 0,0 UV-I 3,7 C 6,7 C 1,4 km/h (1 Bft)
19.12.2013 23:00 6,1 C 13,7 C 5,1 C 6,0 C 5,8 C 0,0 C 81 % 84 % 0 % 1016,5 hPa 0,0 l/m 0,1 km/h (0 Bft) N 0,00 h 0,0 UV-I 3,2 C 5,8 C 0,3 km/h (0 Bft)
20.12.2013 00:00 5,6 C 13,8 C 4,6 C 5,6 C 5,5 C 0,0 C 83 % 85 % 0 % 1016,9 hPa 0,0 l/m 0,2 km/h (0 Bft) N 0,00 h 0,0 UV-I 2,9 C 5,5 C 0,8 km/h (0 Bft)
20.12.2013 01:00 5,5 C 13,8 C 4,4 C 5,4 C 5,3 C 0,0 C 84 % 85 % 0 % 1017,8 hPa 0,0 l/m 0,2 km/h (0 Bft) N 0,00 h 0,0 UV-I 3,0 C 5,3 C 0,1 km/h (0 Bft)
20.12.2013 02:00 5,3 C 13,8 C 4,5 C 5,6 C 5,6 C 0,3 C 85 % 86 % 0 % 1018,4 hPa 0,0 l/m 0,1 km/h (0 Bft) N 0,00 h 0,0 UV-I 2,9 C 5,6 C 0,0 km/h (0 Bft)
20.12.2013 03:00 5,5 C 13,7 C 4,8 C 5,8 C 5,8 C 0,2 C 84 % 86 % 0 % 1018,9 hPa 0,0 l/m 0,1 km/h (0 Bft) N 0,00 h 0,0 UV-I 3,1 C 5,8 C 0,2 km/h (0 Bft)
20.12.2013 04:00 5,3 C 13,8 C 4,3 C 5,4 C 5,4 C 0,1 C 84 % 86 % 0 % 1019,2 hPa 0,0 l/m 0,2 km/h (0 Bft) N 0,00 h 0,0 UV-I 2,8 C 5,4 C 0,2 km/h (0 Bft)
20.12.2013 05:00 4,7 C 13,9 C 3,7 C 4,7 C 4,5 C 0,0 C 85 % 86 % 0 % 1019,6 hPa 0,0 l/m 0,0 km/h (0 Bft) N 0,00 h 0,0 UV-I 2,4 C 4,5 C 0,0 km/h (0 Bft)
20.12.2013 06:00 3,8 C 14,1 C 3,1 C 3,7 C 3,5 C 0,0 C 85 % 86 % 0 % 1019,7 hPa 0,0 l/m 0,2 km/h (0 Bft) N 0,00 h 0,0 UV-I 1,5 C 3,5 C 0,2 km/h (0 Bft)
20.12.2013 07:00 2,7 C 14,2 C 2,9 C 3,1 C 3,1 C 0,5 C 87 % 87 % 0 % 1020,1 hPa 0,0 l/m 0,1 km/h (0 Bft) N 0,00 h 0,0 UV-I 0,7 C 3,1 C 0,2 km/h (0 Bft)
20.12.2013 08:00 2,5 C 14,0 C 3,3 C 3,7 C 3,7 C 1,2 C 88 % 87 % 20 % 1020,9 hPa 0,0 l/m 0,0 km/h (0 Bft) N 0,58 h 0,0 UV-I 0,7 C 3,7 C 0,0 km/h (0 Bft)
20.12.2013 09:00 3,2 C 14,0 C 4,2 C 4,7 C 4,7 C 1,5 C 88 % 87 % 40 % 1021,8 hPa 0,0 l/m 0,1 km/h (0 Bft) N 0,25 h 0,0 UV-I 1,4 C 4,7 C 0,2 km/h (0 Bft)
20.12.2013 10:00 4,2 C 14,0 C 4,9 C 5,2 C 5,2 C 1,0 C 88 % 86 % 27 % 1022,2 hPa 0,0 l/m 0,7 km/h (0 Bft) SO 0,00 h 0,0 UV-I 2,4 C 5,2 C 1,5 km/h (1 Bft)
20.12.2013 11:00 4,9 C 14,1 C 5,4 C 5,2 C 5,2 C 0,3 C 87 % 87 % 9 % 1022,9 hPa 0,7 l/m 3,7 km/h (1 Bft) SO 0,00 h 0,0 UV-I 2,9 C 4,8 C 5,8 km/h (2 Bft)
20.12.2013 12:00 5,1 C 14,2 C 5,7 C 5,7 C 5,7 C 0,6 C 87 % 88 % 17 % 1023,2 hPa 0,0 l/m 2,9 km/h (1 Bft) O 0,00 h 0,0 UV-I 3,1 C 5,7 C 3,5 km/h (1 Bft)
20.12.2013 13:00 5,3 C 14,1 C 6,0 C 6,2 C 6,2 C 0,8 C 88 % 88 % 22 % 1023,6 hPa 0,0 l/m 2,1 km/h (1 Bft) S 0,00 h 0,0 UV-I 3,5 C 6,2 C 2,5 km/h (1 Bft)
20.12.2013 14:00 6,0 C 13,9 C 6,3 C 6,2 C 6,2 C 0,2 C 86 % 88 % 7 % 1024,1 hPa 0,0 l/m 2,9 km/h (1 Bft) S 0,00 h 0,0 UV-I 3,8 C 6,2 C 3,3 km/h (1 Bft)
20.12.2013 15:00 6,0 C 14,0 C 6,1 C 6,4 C 6,4 C 0,4 C 85 % 88 % 9 % 1024,9 hPa 0,0 l/m 1,6 km/h (1 Bft) W-NW 0,17 h 0,0 UV-I 3,7 C 6,4 C 2,2 km/h (1 Bft)
20.12.2013 16:00 5,8 C 14,0 C 5,8 C 6,1 C 6,1 C 0,3 C 85 % 89 % 0 % 1026,1 hPa 0,0 l/m 2,8 km/h (1 Bft) S-SW 0,00 h 0,0 UV-I 3,5 C 6,1 C 3,4 km/h (1 Bft)
20.12.2013 17:00 6,0 C 14,0 C 5,9 C 5,9 C 5,4 C 0,1 C 84 % 88 % 0 % 1027,1 hPa 0,0 l/m 6,2 km/h (2 Bft) S 0,00 h 0,0 UV-I 3,4 C 4,2 C 10,3 km/h (2 Bft)
20.12.2013 18:00 5,8 C 14,0 C 5,5 C 5,5 C 4,6 C 0,0 C 84 % 87 % 0 % 1027,9 hPa 0,0 l/m 7,1 km/h (2 Bft) SO 0,00 h 0,0 UV-I 3,3 C 2,9 C 7,7 km/h (2 Bft)
20.12.2013 19:00 4,4 C 14,1 C 3,8 C 4,0 C 3,2 C 0,0 C 84 % 88 % 0 % 1028,7 hPa 0,0 l/m 1,9 km/h (1 Bft) S 0,00 h 0,0 UV-I 2,0 C 3,2 C 2,0 km/h (1 Bft)
20.12.2013 20:00 3,2 C 14,0 C 2,7 C 2,8 C 2,1 C 0,0 C 85 % 88 % 0 % 1029,7 hPa 0,0 l/m 1,4 km/h (1 Bft) SW 0,00 h 0,0 UV-I 1,0 C 2,1 C 2,5 km/h (1 Bft)
20.12.2013 21:00 2,5 C 13,9 C 2,1 C 2,1 C 1,3 C 0,0 C 84 % 88 % 0 % 1030,8 hPa 0,0 l/m 1,1 km/h (1 Bft) S-SO 0,00 h 0,0 UV-I 0,2 C 1,3 C 1,8 km/h (1 Bft)
20.12.2013 22:00 2,3 C 13,9 C 2,0 C 2,0 C 1,3 C 0,0 C 85 % 88 % 0 % 1031,1 hPa 0,0 l/m 2,1 km/h (1 Bft) NO 0,00 h 0,0 UV-I 0,0 C 1,3 C 2,6 km/h (1 Bft)
20.12.2013 23:00 2,2 C 13,7 C 1,9 C 1,9 C 1,1 C 0,0 C 84 % 88 % 0 % 1031,5 hPa 0,0 l/m 2,3 km/h (1 Bft) SO 0,00 h 0,0 UV-I -0,2 C 1,1 C 3,0 km/h (1 Bft)
21.12.2013 00:00 2,6 C 13,6 C 2,2 C 2,1 C 1,1 C 0,0 C 84 % 87 % 0 % 1032,4 hPa 0,0 l/m 3,6 km/h (1 Bft) O-NO 0,00 h 0,0 UV-I 0,2 C 1,1 C 5,3 km/h (1 Bft)
21.12.2013 01:00 2,7 C 13,5 C 2,1 C 2,2 C 1,3 C 0,0 C 83 % 87 % 0 % 1032,2 hPa 0,0 l/m 3,3 km/h (1 Bft) NO 0,00 h 0,0 UV-I 0,2 C 1,3 C 4,5 km/h (1 Bft)
21.12.2013 02:00 2,5 C 13,5 C 2,0 C 2,1 C 1,3 C 0,0 C 84 % 86 % 0 % 1032,2 hPa 0,0 l/m 2,9 km/h (1 Bft) SO 0,00 h 0,0 UV-I 0,0 C 1,3 C 4,7 km/h (1 Bft)
21.12.2013 03:00 2,3 C 13,4 C 1,9 C 1,9 C 0,9 C 0,0 C 84 % 86 % 0 % 1032,3 hPa 0,0 l/m 3,1 km/h (1 Bft) SO 0,00 h 0,0 UV-I -0,1 C 0,9 C 4,2 km/h (1 Bft)
21.12.2013 04:00 2,4 C 13,3 C 1,9 C 1,9 C 0,8 C 0,0 C 84 % 86 % 0 % 1032,4 hPa 0,0 l/m 3,7 km/h (1 Bft) SO 0,00 h 0,0 UV-I -0,1 C 0,8 C 5,1 km/h (1 Bft)
21.12.2013 05:00 2,6 C 13,2 C 1,9 C 2,0 C 0,7 C 0,0 C 82 % 86 % 0 % 1032,4 hPa 0,0 l/m 4,4 km/h (1 Bft) SO 0,00 h 0,0 UV-I -0,1 C 0,2 C 4,8 km/h (1 Bft)
21.12.2013 06:00 2,7 C 13,1 C 1,9 C 2,2 C 1,2 C 0,0 C 82 % 86 % 0 % 1032,6 hPa 0,0 l/m 3,6 km/h (1 Bft) SO 0,00 h 0,0 UV-I -0,1 C 1,2 C 4,8 km/h (1 Bft)
21.12.2013 07:00 2,9 C 13,0 C 2,2 C 2,2 C 0,7 C 0,0 C 80 % 84 % 0 % 1031,6 hPa 0,0 l/m 5,7 km/h (1 Bft) S-SO 0,00 h 0,0 UV-I -0,2 C -0,8 C 8,1 km/h (2 Bft)
21.12.2013 08:00 2,9 C 12,9 C 2,1 C 2,2 C 0,8 C 0,0 C 79 % 84 % 0 % 1031,5 hPa 0,0 l/m 5,3 km/h (1 Bft) O-SO 0,00 h 0,0 UV-I -0,3 C -0,7 C 8,5 km/h (2 Bft)
21.12.2013 09:00 3,2 C 12,9 C 2,6 C 2,8 C 2,1 C 0,0 C 79 % 82 % 0 % 1031,3 hPa 0,0 l/m 4,7 km/h (1 Bft) S 0,00 h 0,0 UV-I -0,1 C 1,3 C 7,4 km/h (2 Bft)
21.12.2013 10:00 4,0 C 12,9 C 3,6 C 3,7 C 2,7 C 0,0 C 77 % 80 % 0 % 1032,0 hPa 0,0 l/m 7,7 km/h (2 Bft) S 0,00 h 0,0 UV-I 0,3 C 0,5 C 11,9 km/h (2 Bft)
21.12.2013 11:00 4,9 C 12,9 C 4,5 C 4,9 C 4,6 C 0,2 C 74 % 78 % 4 % 1031,5 hPa 0,0 l/m 7,1 km/h (2 Bft) SO 0,00 h 0,0 UV-I 0,6 C 2,9 C 11,4 km/h (2 Bft)
21.12.2013 12:00 5,1 C 12,9 C 4,7 C 4,9 C 4,2 C 0,0 C 73 % 77 % 0 % 1031,4 hPa 0,0 l/m 7,9 km/h (2 Bft) S 0,00 h 0,0 UV-I 0,7 C 2,2 C 10,0 km/h (2 Bft)
21.12.2013 13:00 5,2 C 13,0 C 4,7 C 5,0 C 4,6 C 0,0 C 75 % 78 % 0 % 1031,1 hPa 0,0 l/m 5,7 km/h (1 Bft) SO 0,00 h 0,0 UV-I 1,0 C 3,3 C 8,7 km/h (2 Bft)
21.12.2013 14:00 5,7 C 12,9 C 5,2 C 6,1 C 6,0 C 0,5 C 73 % 77 % 12 % 1030,6 hPa 0,0 l/m 5,0 km/h (1 Bft) O-SO 0,00 h 0,0 UV-I 1,2 C 5,2 C 5,6 km/h (1 Bft)
21.12.2013 15:00 5,3 C 13,1 C 4,8 C 5,1 C 4,7 C 0,0 C 72 % 76 % 0 % 1030,1 hPa 0,0 l/m 4,6 km/h (1 Bft) SW 0,00 h 0,0 UV-I 0,6 C 4,0 C 8,0 km/h (2 Bft)
21.12.2013 16:00 4,9 C 13,1 C 4,0 C 4,6 C 4,0 C 0,0 C 70 % 76 % 0 % 1030,1 hPa 0,0 l/m 2,5 km/h (1 Bft) SO 0,00 h 0,0 UV-I -0,1 C 4,0 C 2,5 km/h (1 Bft)
21.12.2013 17:00 4,5 C 13,1 C 3,6 C 4,1 C 3,2 C 0,0 C 70 % 77 % 0 % 1029,2 hPa 0,0 l/m 3,6 km/h (1 Bft) O-SO 0,00 h 0,0 UV-I -0,4 C 2,6 C 5,2 km/h (1 Bft)
21.12.2013 18:00 4,4 C 13,1 C 3,6 C 3,8 C 2,6 C 0,0 C 71 % 77 % 0 % 1028,8 hPa 0,0 l/m 5,8 km/h (2 Bft) S-SO 0,00 h 0,0 UV-I -0,3 C 1,1 C 6,8 km/h (2 Bft)
21.12.2013 19:00 3,9 C 13,1 C 2,7 C 3,4 C 2,3 C 0,0 C 73 % 78 % 0 % 1028,4 hPa 0,0 l/m 2,3 km/h (1 Bft) SO 0,00 h 0,0 UV-I -0,5 C 2,2 C 3,0 km/h (1 Bft)
21.12.2013 20:00 2,7 C 13,0 C 1,2 C 2,2 C 1,2 C 0,0 C 75 % 81 % 0 % 1028,0 hPa 0,0 l/m 0,5 km/h (0 Bft) N-NO 0,00 h 0,0 UV-I -1,2 C 1,2 C 0,7 km/h (0 Bft)
21.12.2013 21:00 2,3 C 13,0 C 0,9 C 1,9 C 1,1 C 0,0 C 76 % 82 % 0 % 1027,0 hPa 0,0 l/m 0,5 km/h (0 Bft) N 0,00 h 0,0 UV-I -1,5 C 1,1 C 0,5 km/h (0 Bft)
21.12.2013 22:00 2,2 C 12,9 C 0,9 C 1,9 C 1,3 C 0,0 C 76 % 82 % 0 % 1026,2 hPa 0,0 l/m 0,1 km/h (0 Bft) N 0,00 h 0,0 UV-I -1,5 C 1,3 C 0,1 km/h (0 Bft)
21.12.2013 23:00 2,1 C 12,9 C 1,1 C 1,9 C 1,3 C 0,0 C 76 % 82 % 0 % 1025,1 hPa 0,0 l/m 0,2 km/h (0 Bft) N 0,00 h 0,0 UV-I -1,7 C 1,3 C 0,2 km/h (0 Bft)
22.12.2013 00:00 1,9 C 12,9 C 1,2 C 2,0 C 1,9 C 0,0 C 80 % 83 % 0 % 1024,7 hPa 0,0 l/m 1,0 km/h (0 Bft) S 0,00 h 0,0 UV-I -1,1 C 1,9 C 2,7 km/h (1 Bft)
22.12.2013 01:00 5,6 C 12,9 C 4,6 C 5,6 C 5,5 C 0,0 C 81 % 83 % 0 % 1023,9 hPa 0,0 l/m 4,3 km/h (1 Bft) S-SO 0,00 h 0,0 UV-I 2,6 C 5,2 C 6,9 km/h (2 Bft)
22.12.2013 02:00 7,3 C 12,8 C 6,5 C 7,3 C 7,2 C 0,0 C 78 % 82 % 0 % 1023,4 hPa 0,0 l/m 4,2 km/h (1 Bft) O-NO 0,00 h 0,0 UV-I 3,7 C 7,0 C 6,9 km/h (2 Bft)
22.12.2013 03:00 8,2 C 12,9 C 7,5 C 8,0 C 7,7 C 0,0 C 78 % 81 % 0 % 1022,8 hPa 0,0 l/m 5,5 km/h (1 Bft) S-SO 0,00 h 0,0 UV-I 4,6 C 7,1 C 10,1 km/h (2 Bft)
22.12.2013 04:00 8,6 C 13,1 C 8,0 C 8,5 C 8,2 C 0,0 C 77 % 80 % 0 % 1022,5 hPa 0,0 l/m 5,4 km/h (1 Bft) SO 0,00 h 0,0 UV-I 4,9 C 7,5 C 7,0 km/h (2 Bft)
22.12.2013 05:00 9,0 C 13,2 C 8,4 C 8,9 C 8,6 C 0,0 C 77 % 79 % 0 % 1022,5 hPa 0,0 l/m 5,6 km/h (1 Bft) S 0,00 h 0,0 UV-I 5,2 C 8,0 C 8,1 km/h (2 Bft)
22.12.2013 06:00 9,1 C 13,4 C 8,3 C 9,0 C 8,8 C 0,0 C 77 % 80 % 0 % 1022,1 hPa 0,0 l/m 4,6 km/h (1 Bft) S 0,00 h 0,0 UV-I 5,3 C 8,6 C 6,0 km/h (2 Bft)
22.12.2013 07:00 9,1 C 13,5 C 8,3 C 9,0 C 8,7 C 0,0 C 77 % 80 % 0 % 1021,7 hPa 0,0 l/m 5,0 km/h (1 Bft) S 0,00 h 0,0 UV-I 5,2 C 8,3 C 7,9 km/h (2 Bft)
22.12.2013 08:00 9,2 C 13,6 C 8,5 C 9,1 C 8,7 C 0,0 C 76 % 79 % 0 % 1021,1 hPa 0,0 l/m 5,3 km/h (1 Bft) O-NO 0,00 h 0,0 UV-I 5,2 C 8,2 C 6,3 km/h (2 Bft)
22.12.2013 09:00 9,4 C 13,7 C 8,9 C 9,3 C 9,0 C 0,0 C 74 % 77 % 0 % 1021,2 hPa 0,0 l/m 6,1 km/h (2 Bft) S 0,00 h 0,0 UV-I 5,1 C 8,2 C 9,3 km/h (2 Bft)
22.12.2013 10:00 9,5 C 13,8 C 9,1 C 9,6 C 9,4 C 0,1 C 75 % 77 % 2 % 1021,3 hPa 0,0 l/m 5,8 km/h (2 Bft) O-NO 0,00 h 0,0 UV-I 5,3 C 8,9 C 8,1 km/h (2 Bft)
22.12.2013 11:00 9,9 C 14,0 C 9,7 C 10,4 C 10,3 C 0,4 C 74 % 76 % 12 % 1021,0 hPa 0,0 l/m 6,0 km/h (2 Bft) S 0,00 h 0,0 UV-I 5,5 C 10,1 C 11,6 km/h (2 Bft)
22.12.2013 12:00 10,1 C 14,1 C 9,9 C 10,4 C 10,2 C 0,3 C 74 % 76 % 8 % 1020,8 hPa 0,0 l/m 7,6 km/h (2 Bft) S-SO 0,00 h 0,0 UV-I 5,6 C 9,8 C 10,7 km/h (2 Bft)
22.12.2013 13:00 10,4 C 14,2 C 9,9 C 11,0 C 10,9 C 0,5 C 73 % 76 % 14 % 1020,2 hPa 0,0 l/m 7,4 km/h (2 Bft) S-SO 0,00 h 0,0 UV-I 5,9 C 10,9 C 8,3 km/h (2 Bft)
22.12.2013 14:00 11,0 C 14,3 C 10,2 C 11,6 C 11,4 C 0,6 C 70 % 74 % 16 % 1019,0 hPa 0,0 l/m 7,6 km/h (2 Bft) W-SW 0,00 h 0,0 UV-I 5,8 C 11,4 C 11,0 km/h (2 Bft)
22.12.2013 15:00 10,6 C 14,5 C 9,7 C 10,3 C 9,6 C 0,0 C 71 % 75 % 0 % 1018,6 hPa 0,0 l/m 7,8 km/h (2 Bft) W-SW 0,00 h 0,0 UV-I 5,5 C 8,7 C 9,9 km/h (2 Bft)
22.12.2013 16:00 10,0 C 14,6 C 9,3 C 9,8 C 9,4 C 0,0 C 72 % 76 % 0 % 1018,8 hPa 0,0 l/m 5,4 km/h (1 Bft) SO 0,00 h 0,0 UV-I 5,3 C 9,0 C 7,8 km/h (2 Bft)
22.12.2013 17:00 10,1 C 14,7 C 9,4 C 9,8 C 9,1 C 0,0 C 73 % 77 % 0 % 1018,1 hPa 0,0 l/m 6,8 km/h (2 Bft) NO 0,00 h 0,0 UV-I 5,5 C 8,2 C 7,7 km/h (2 Bft)
22.12.2013 18:00 10,5 C 14,8 C 9,8 C 10,2 C 9,5 C 0,0 C 72 % 76 % 0 % 1018,1 hPa 0,0 l/m 8,3 km/h (2 Bft) NO 0,00 h 0,0 UV-I 5,7 C 8,4 C 13,6 km/h (3 Bft)
22.12.2013 19:00 10,3 C 14,8 C 9,7 C 10,2 C 9,8 C 0,0 C 74 % 77 % 0 % 1017,9 hPa 0,0 l/m 6,2 km/h (2 Bft) S 0,00 h 0,0 UV-I 5,8 C 9,2 C 7,7 km/h (2 Bft)
22.12.2013 20:00 10,1 C 14,9 C 9,5 C 9,8 C 9,2 C 0,0 C 76 % 78 % 0 % 1017,6 hPa 0,0 l/m 6,5 km/h (2 Bft) S 0,00 h 0,0 UV-I 6,0 C 8,5 C 7,8 km/h (2 Bft)
22.12.2013 21:00 10,0 C 14,9 C 9,4 C 9,8 C 9,3 C 0,0 C 78 % 80 % 0 % 1017,0 hPa 0,0 l/m 5,6 km/h (1 Bft) SW 0,00 h 0,0 UV-I 6,3 C 8,8 C 6,4 km/h (2 Bft)
22.12.2013 22:00 10,3 C 15,0 C 9,5 C 9,9 C 9,0 C 0,0 C 77 % 79 % 0 % 1017,2 hPa 0,0 l/m 9,5 km/h (2 Bft) SW 0,00 h 0,0 UV-I 6,4 C 7,6 C 13,2 km/h (3 Bft)
22.12.2013 23:00 10,4 C 15,0 C 9,5 C 10,0 C 8,8 C 0,0 C 75 % 78 % 0 % 1017,1 hPa 0,0 l/m 11,6 km/h (2 Bft) SW 0,00 h 0,0 UV-I 6,1 C 7,0 C 14,8 km/h (3 Bft)
Min-Datum _ 18.12.13 18.12.13 18.12.13 18.12.13 17.12.13 16.12.13 17.12.13 16.12.13 16.12.13 19.12.13 - 16.12.13 - - 16.12.13 18.12.13 17.12.13 16.12.13
_ Min-Zeit 04:42 12:02 03:17 04:42 07:20 00:00 13:45 14:15 00:00 14:30 - 01:10 - - 00:00 04:42 07:20 00:00
Minimum _ -3,4 C 11,9 C -2,6 C -3,4 C -3,4 C 0,0 C 43 % 54 % 0 % 1011,9 hPa - 0,0 km/h (0 Bft) - - 0,0 UV-I -5,1 C -3,4 C 0,0 km/h (0 Bft)
Max-Datum _ 17.12.13 22.12.13 17.12.13 17.12.13 17.12.13 17.12.13 18.12.13 20.12.13 17.12.13 21.12.13 20.12.13 22.12.13 - 17.12.13 16.12.13 22.12.13 17.12.13 22.12.13
_ Max-Zeit 13:25 23:40 13:30 12:10 12:10 10:45 10:55 16:30 10:30 05:30 11:05 22:55 - 10:25 00:00 22:40 12:10 18:20
Maximum _ 12,9 C 15,1 C 10,9 C 14,6 C 14,6 C 6,7 C 91 % 89 % 100 % 1032,6 hPa 0,7 l/m 15,0 km/h
SW (3 Bft)
- 0,08 h 0,0 UV-I 6,5 C 14,6 C 31,2 km/h
NO (5 Bft)
Durchschnitt _ 4,4 C 13,2 C 3,6 C 4,5 C 4,1 C 0,3 C 77 % 81 % 6 % 1024,2 hPa #0,7 l/m 2,3 km/h (1 Bft) SO #2:40 h 0,0 UV-I 0,5 C 3,9 C 3,3 km/h (1 Bft)
2013 www.wetterstation-wechselburg.de